Alta Sierra, California
Current Conditions -  °F | °C
As of 8:00 PM on Thursday 27 Nov 2014 (Local Time) from KGOO Reporting Station
Clear Clear  
Wind Chill: 57°   Ceiling: Unl
Heat Index: 57°   Visibility: 10mi
Dew Point: 32°   Wind: 3mph
Humidity: 38%   Direction: 130°SE
Pressure: 30.13"   Gusts: NA
Location:  39.2183°N, 120.924°W
Report Text: KGOO 280400Z AUTO 13003KT 10SM CLR 14/00 A3013 RMK AO1
Loading
Personal Weather Stations






























Interactive Weather Map New forecast layout! Learn more

10-Day Weather Forecast

Advertisements
Track Severe Weather on mobile